Time;durP1;ratioP1;P1;durP2;ratioP2;P2;SDS_P1;SDS_P2;PMS_P1;PMS_P2;Temp;Humidity;BMP_temperature;BMP_pressure;BME280_temperature;BME280_humidity;BME280_pressure;Samples;Min_cycle;Max_cycle;Signal;HPM_P1;HPM_P2
2021/04/28 00:01:22;;;;;;;2.78;1.90;;;7.40;99.90;;;;;;5005323;28;20402;-79
2021/04/28 00:03:47;;;;;;;2.37;1.80;;;7.30;99.90;;;;;;5005954;28;20026;-75
2021/04/28 00:06:13;;;;;;;2.93;1.77;;;7.30;99.90;;;;;;5014007;28;20026;-76
2021/04/28 00:08:39;;;;;;;5.10;2.30;;;7.30;99.90;;;;;;5009906;28;20037;-77
2021/04/28 00:11:05;;;;;;;11.27;2.73;;;7.40;99.90;;;;;;5004845;28;20036;-79
2021/04/28 00:13:31;;;;;;;5.00;2.30;;;7.40;99.90;;;;;;5005199;28;20047;-76
2021/04/28 00:15:57;;;;;;;2.72;1.95;;;7.30;99.90;;;;;;4994233;28;20052;-75
2021/04/28 00:18:23;;;;;;;3.23;2.30;;;7.20;99.90;;;;;;4989723;28;20022;-73
2021/04/28 00:20:49;;;;;;;5.47;2.20;;;7.30;99.90;;;;;;5005585;28;20310;-76
2021/04/28 00:23:16;;;;;;;5.70;1.90;;;7.30;99.90;;;;;;4987648;28;20447;-77
2021/04/28 00:25:43;;;;;;;3.38;1.90;;;7.30;99.90;;;;;;5005239;28;20057;-74
2021/04/28 00:28:08;;;;;;;;;;;7.30;99.90;;;;;;4986203;28;20030;-75
2021/04/28 00:30:35;;;;;;;4.90;1.67;;;7.20;99.90;;;;;;5004752;28;19910;-82
2021/04/28 00:33:01;;;;;;;2.63;1.83;;;7.20;99.90;;;;;;5005276;28;20247;-74
2021/04/28 00:35:27;;;;;;;3.13;1.40;;;7.20;99.90;;;;;;5006111;28;20029;-81
2021/04/28 00:37:53;;;;;;;4.63;2.53;;;7.20;99.90;;;;;;5006497;28;20448;-80
2021/04/28 00:40:21;;;;;;;3.28;1.63;;;7.20;99.90;;;;;;4988275;28;20496;-85
2021/04/28 00:42:49;;;;;;;4.47;1.63;;;7.20;99.90;;;;;;4988360;28;20121;-80
2021/04/28 00:45:16;;;;;;;2.47;1.90;;;7.30;99.90;;;;;;4991619;28;20037;-82
2021/04/28 00:47:43;;;;;;;4.90;2.42;;;7.20;99.90;;;;;;4992146;28;20386;-84
2021/04/28 00:50:33;;;;;;;4.28;2.28;;;7.20;99.90;;;;;;5006437;28;20445;-80
2021/04/28 00:53:01;;;;;;;3.10;1.85;;;7.10;99.90;;;;;;5007279;28;20038;-77
2021/04/28 00:55:28;;;;;;;3.00;1.75;;;7.00;99.90;;;;;;5009948;28;20025;-81
2021/04/28 00:57:54;;;;;;;3.22;1.90;;;7.00;99.90;;;;;;4975231;28;20030;-77
2021/04/28 01:00:22;;;;;;;5.00;1.88;;;7.10;99.90;;;;;;5005114;28;20026;-75
2021/04/28 01:02:48;;;;;;;3.55;1.63;;;7.10;99.90;;;;;;5007328;28;20484;-82
2021/04/28 01:05:15;;;;;;;2.15;1.70;;;7.00;99.90;;;;;;5009399;28;20045;-82
2021/04/28 01:07:43;;;;;;;6.10;1.73;;;7.00;99.90;;;;;;4992408;28;20034;-78
2021/04/28 01:10:16;;;;;;;3.08;2.03;;;7.00;99.90;;;;;;4990462;28;20041;-76
2021/04/28 01:12:43;;;;;;;6.13;2.03;;;7.00;99.90;;;;;;5007633;28;20096;-81
2021/04/28 01:15:14;;;;;;;4.93;1.93;;;6.90;99.90;;;;;;4992351;28;20112;-80
2021/04/28 01:17:42;;;;;;;3.78;1.80;;;6.90;99.90;;;;;;5009120;28;20384;-82
2021/04/28 01:20:11;;;;;;;2.85;1.90;;;6.90;99.90;;;;;;5008134;28;20093;-82
2021/04/28 01:22:42;;;;;;;2.63;1.98;;;6.90;99.90;;;;;;5008252;28;20037;-76
2021/04/28 01:25:10;;;;;;;4.85;2.00;;;6.80;99.90;;;;;;4991176;28;20045;-77
2021/04/28 01:27:40;;;;;;;2.15;1.55;;;6.80;99.90;;;;;;5009113;28;20034;-72
2021/04/28 01:30:08;;;;;;;3.40;1.60;;;6.80;99.90;;;;;;5007094;28;20030;-82
2021/04/28 01:32:35;;;;;;;2.97;1.75;;;6.70;99.90;;;;;;5007412;28;20041;-72
2021/04/28 01:35:03;;;;;;;3.58;1.77;;;6.70;99.90;;;;;;4989382;28;20325;-79
2021/04/28 01:37:32;;;;;;;3.83;1.67;;;6.70;99.90;;;;;;5005659;28;20032;-82
2021/04/28 01:39:58;;;;;;;1.77;1.30;;;6.70;99.90;;;;;;5006507;28;20329;-75
2021/04/28 01:42:25;;;;;;;5.75;1.65;;;6.70;99.90;;;;;;4990321;28;20088;-73
2021/04/28 01:44:51;;;;;;;3.72;2.05;;;6.70;99.90;;;;;;4988042;28;20042;-74
2021/04/28 01:47:20;;;;;;;3.80;1.77;;;6.70;99.90;;;;;;5006583;28;20030;-80
2021/04/28 01:49:47;;;;;;;3.47;2.28;;;6.60;99.90;;;;;;5004789;28;20089;-77
2021/04/28 01:52:14;;;;;;;2.65;2.38;;;6.60;99.90;;;;;;5007697;28;20041;-77
2021/04/28 01:54:40;;;;;;;5.72;2.50;;;6.60;99.90;;;;;;4989285;28;20385;-73
2021/04/28 01:57:07;;;;;;;3.80;2.08;;;6.60;99.90;;;;;;5006908;28;20077;-81
2021/04/28 01:59:34;;;;;;;3.58;2.10;;;6.50;99.90;;;;;;5006412;28;20076;-81
2021/04/28 02:02:08;;;;;;;2.97;2.03;;;6.50;99.90;;;;;;5007002;28;20416;-82
2021/04/28 02:04:37;;;;;;;4.57;2.63;;;6.40;99.90;;;;;;5007809;28;20402;-83
2021/04/28 02:07:04;;;;;;;5.38;2.15;;;6.40;99.90;;;;;;5005611;28;20040;-80
2021/04/28 02:09:30;;;;;;;2.83;1.75;;;6.40;99.90;;;;;;4991376;28;20030;-77
2021/04/28 02:11:58;;;;;;;6.05;1.90;;;6.40;99.90;;;;;;4992439;28;20328;-79
2021/04/28 02:14:25;;;;;;;7.03;2.22;;;6.40;99.90;;;;;;5009744;28;20049;-81
2021/04/28 02:16:54;;;;;;;2.78;1.90;;;6.40;99.90;;;;;;4993219;28;20028;-79
2021/04/28 02:19:20;;;;;;;2.17;1.60;;;6.40;99.90;;;;;;4988078;28;20121;-79
2021/04/28 02:21:51;;;;;;;2.33;1.77;;;6.40;99.90;;;;;;5005660;28;20041;-83
2021/04/28 02:24:18;;;;;;;2.97;2.03;;;6.40;99.90;;;;;;5006984;28;20042;-73
2021/04/28 02:26:45;;;;;;;3.05;2.00;;;6.30;99.90;;;;;;4989996;28;20030;-79
2021/04/28 02:29:13;;;;;;;1.38;1.27;;;6.30;99.90;;;;;;5004114;28;20030;-82
2021/04/28 02:31:39;;;;;;;2.83;2.03;;;6.30;99.90;;;;;;4988420;28;20165;-76
2021/04/28 02:34:06;;;;;;;6.05;2.15;;;6.30;99.90;;;;;;5004731;28;20035;-84
2021/04/28 02:36:44;;;;;;;4.13;1.98;;;6.30;99.90;;;;;;5005180;28;20022;-81
2021/04/28 02:39:37;;;;;;;5.38;2.55;;;6.30;99.90;;;;;;4990189;28;20030;-76
2021/04/28 02:42:05;;;;;;;2.25;1.95;;;6.30;99.90;;;;;;4991756;28;20382;-84
2021/04/28 02:44:34;;;;;;;3.17;2.05;;;6.30;99.90;;;;;;4990057;28;20420;-82
2021/04/28 02:47:00;;;;;;;4.95;2.00;;;6.20;99.90;;;;;;4990290;28;20057;-84
2021/04/28 02:49:27;;;;;;;3.00;1.65;;;6.20;99.90;;;;;;4989461;28;20030;-83
2021/04/28 02:51:54;;;;;;;2.83;1.85;;;6.20;99.90;;;;;;5002227;28;20069;-80
2021/04/28 02:54:21;;;;;;;2.72;1.75;;;6.20;99.90;;;;;;4989871;28;20045;-82
2021/04/28 02:56:53;;;;;;;4.13;1.92;;;6.20;99.90;;;;;;4986850;28;20081;-76
2021/04/28 02:59:20;;;;;;;10.63;3.38;;;6.20;99.90;;;;;;4987987;28;20033;-76
2021/04/28 03:01:50;;;;;;;2.58;1.80;;;6.10;99.90;;;;;;4988129;28;20034;-77
2021/04/28 03:04:17;;;;;;;4.20;2.45;;;6.10;99.90;;;;;;5007722;28;20316;-78
2021/04/28 03:06:45;;;;;;;;;;;6.00;99.90;;;;;;4987765;28;20371;-73
2021/04/28 03:09:14;;;;;;;3.75;1.90;;;6.00;99.90;;;;;;4987278;28;19968;-82
2021/04/28 03:11:42;;;;;;;3.65;2.65;;;6.00;99.90;;;;;;5006074;28;20432;-82
2021/04/28 03:14:09;;;;;;;3.63;1.40;;;6.00;99.90;;;;;;4988235;28;20049;-80
2021/04/28 03:16:35;;;;;;;3.55;2.05;;;6.00;99.90;;;;;;4989021;28;20030;-77
2021/04/28 03:19:05;;;;;;;3.92;2.20;;;6.00;99.90;;;;;;4992793;28;20033;-81
2021/04/28 03:21:35;;;;;;;3.22;1.77;;;5.90;99.90;;;;;;4991545;28;20121;-74
2021/04/28 03:24:02;;;;;;;3.20;1.80;;;5.90;99.90;;;;;;4990754;28;20031;-84
2021/04/28 03:26:28;;;;;;;8.38;2.85;;;5.90;99.90;;;;;;4990045;28;20034;-83
2021/04/28 03:28:58;;;;;;;3.88;1.77;;;5.90;99.90;;;;;;4988236;28;20043;-80
2021/04/28 03:31:24;;;;;;;2.78;1.80;;;5.80;99.90;;;;;;4988394;28;20337;-77
2021/04/28 03:33:56;;;;;;;2.63;1.93;;;5.80;99.90;;;;;;4988261;28;20029;-78
2021/04/28 03:36:22;;;;;;;2.78;2.05;;;5.80;99.90;;;;;;4985841;28;20022;-72
2021/04/28 03:38:48;;;;;;;2.25;1.23;;;5.70;99.90;;;;;;4986484;28;20582;-81
2021/04/28 03:41:14;;;;;;;1.90;1.75;;;5.70;99.90;;;;;;4988833;28;20029;-82
2021/04/28 03:43:42;;;;;;;3.13;1.75;;;5.60;99.90;;;;;;4987847;28;20108;-72
2021/04/28 03:46:09;;;;;;;4.93;2.58;;;5.50;99.90;;;;;;4983900;28;20081;-79
2021/04/28 03:48:36;;;;;;;8.90;2.20;;;5.50;99.90;;;;;;4985087;28;20034;-82
2021/04/28 03:51:04;;;;;;;4.10;1.85;;;5.50;99.90;;;;;;4983047;28;20025;-80
2021/04/28 03:53:33;;;;;;;2.60;2.20;;;5.50;99.90;;;;;;4980710;28;20100;-80
2021/04/28 03:56:01;;;;;;;4.45;2.47;;;5.40;99.90;;;;;;4984047;28;20026;-75
2021/04/28 03:58:27;;;;;;;3.65;2.13;;;5.30;99.90;;;;;;4988871;28;20134;-83
2021/04/28 04:00:53;;;;;;;4.45;2.13;;;5.40;99.90;;;;;;4983571;28;20283;-81
2021/04/28 04:03:18;;;;;;;7.10;2.30;;;5.40;99.90;;;;;;4983729;28;20030;-80
2021/04/28 04:05:44;;;;;;;11.93;2.13;;;5.30;99.90;;;;;;4985349;28;20030;-81
2021/04/28 04:08:10;;;;;;;2.55;1.70;;;5.30;99.90;;;;;;4984130;28;20306;-83
2021/04/28 04:10:36;;;;;;;4.40;2.30;;;5.30;99.90;;;;;;4984813;28;20421;-84
2021/04/28 04:13:02;;;;;;;3.75;1.90;;;5.30;99.90;;;;;;4985050;28;20450;-73
2021/04/28 04:15:28;;;;;;;4.27;2.47;;;5.20;99.90;;;;;;4988310;28;20041;-79
2021/04/28 04:17:53;;;;;;;4.70;2.40;;;5.20;99.90;;;;;;4989051;28;20039;-81
2021/04/28 04:20:19;;;;;;;3.50;2.10;;;5.20;99.90;;;;;;4991759;28;20034;-82
2021/04/28 04:22:45;;;;;;;7.17;2.20;;;5.10;99.90;;;;;;4990470;28;20066;-80
2021/04/28 04:25:11;;;;;;;6.50;2.55;;;5.10;99.90;;;;;;4987133;28;20038;-80
2021/04/28 04:27:36;;;;;;;3.47;2.42;;;5.20;99.90;;;;;;4988211;28;20149;-81
2021/04/28 04:30:06;;;;;;;6.10;2.57;;;5.20;99.90;;;;;;4987680;28;20034;-78
2021/04/28 04:32:32;;;;;;;4.63;2.63;;;5.30;99.90;;;;;;4986255;28;20022;-80
2021/04/28 04:34:58;;;;;;;1.90;1.52;;;5.50;99.90;;;;;;4989227;28;20026;-78
2021/04/28 04:37:23;;;;;;;5.23;2.43;;;5.60;99.90;;;;;;4986860;28;20039;-73
2021/04/28 04:39:49;;;;;;;4.67;2.60;;;5.70;99.90;;;;;;4988390;28;20046;-76
2021/04/28 04:42:15;;;;;;;5.60;2.33;;;5.60;99.90;;;;;;4990233;28;20037;-86
2021/04/28 04:44:40;;;;;;;6.83;2.87;;;5.60;99.90;;;;;;4988035;28;20030;-85
2021/04/28 04:47:06;;;;;;;5.57;2.45;;;5.50;99.90;;;;;;4993423;28;20366;-87
2021/04/28 04:49:32;;;;;;;8.13;2.77;;;5.50;99.90;;;;;;4990158;28;20031;-81
2021/04/28 04:51:58;;;;;;;5.83;2.80;;;5.50;99.90;;;;;;4987709;28;20026;-82
2021/04/28 04:54:24;;;;;;;6.03;2.45;;;5.50;99.90;;;;;;4991069;28;20152;-85
2021/04/28 04:56:50;;;;;;;2.30;1.85;;;5.60;99.90;;;;;;4989608;28;20406;-82
2021/04/28 04:59:15;;;;;;;4.13;2.30;;;5.70;99.90;;;;;;4986707;28;20031;-79
2021/04/28 05:01:41;;;;;;;4.80;2.75;;;5.80;99.90;;;;;;4987790;28;20416;-86
2021/04/28 05:04:07;;;;;;;2.75;1.67;;;5.90;99.90;;;;;;4989740;28;20386;-82
2021/04/28 05:06:32;;;;;;;3.07;1.90;;;5.90;99.90;;;;;;4991625;28;20080;-81
2021/04/28 05:08:58;;;;;;;4.07;2.20;;;5.90;99.90;;;;;;4988230;28;20046;-78
2021/04/28 05:11:24;;;;;;;2.53;2.27;;;5.90;99.90;;;;;;4991596;28;20023;-82
2021/04/28 05:13:50;;;;;;;6.03;1.98;;;6.00;99.90;;;;;;5001763;28;20125;-79
2021/04/28 05:16:16;;;;;;;6.63;3.30;;;6.00;99.90;;;;;;5010593;28;20046;-84
2021/04/28 05:18:41;;;;;;;13.50;2.43;;;6.00;99.90;;;;;;4989386;28;20321;-84
2021/04/28 05:21:07;;;;;;;2.60;1.70;;;6.10;99.90;;;;;;4991752;28;20026;-89
2021/04/28 05:23:33;;;;;;;6.53;2.67;;;6.10;99.90;;;;;;4988863;28;20038;-88
2021/04/28 05:25:58;;;;;;;4.33;2.03;;;6.10;99.90;;;;;;5010069;28;20026;-85
2021/04/28 05:28:24;;;;;;;4.50;2.43;;;6.10;99.90;;;;;;5007816;28;20552;-75
2021/04/28 05:30:50;;;;;;;2.38;1.70;;;6.10;99.90;;;;;;5002139;28;20034;-76
2021/04/28 05:33:16;;;;;;;2.50;2.03;;;6.20;99.90;;;;;;5010891;28;20065;-76
2021/04/28 05:35:41;;;;;;;1.90;1.35;;;6.20;99.90;;;;;;5010249;28;20057;-79
2021/04/28 05:38:07;;;;;;;4.82;2.15;;;6.30;99.90;;;;;;5006516;28;20123;-86
2021/04/28 05:40:33;;;;;;;4.97;2.53;;;6.30;99.90;;;;;;5008284;28;20026;-84
2021/04/28 05:42:59;;;;;;;3.20;2.33;;;6.30;99.90;;;;;;5003757;28;20472;-77
2021/04/28 05:45:25;;;;;;;3.60;2.30;;;6.30;99.90;;;;;;4990808;28;20290;-84
2021/04/28 05:47:50;;;;;;;5.18;2.55;;;6.30;99.90;;;;;;5008150;28;20052;-78
2021/04/28 05:50:17;;;;;;;3.07;1.97;;;6.30;99.90;;;;;;4992088;28;20034;-85
2021/04/28 05:52:43;;;;;;;;;;;6.40;99.90;;;;;;5007205;28;20026;-84
2021/04/28 05:55:10;;;;;;;3.03;1.88;;;6.40;99.90;;;;;;5010873;28;19916;-78
2021/04/28 05:57:36;;;;;;;2.45;1.83;;;6.40;99.90;;;;;;5011550;28;20042;-81
2021/04/28 06:00:12;;;;;;;5.13;2.83;;;6.50;99.90;;;;;;4993990;28;20029;-86
2021/04/28 06:02:38;;;;;;;4.55;2.47;;;6.50;99.90;;;;;;5009186;28;20029;-83
2021/04/28 06:05:07;;;;;;;4.57;2.67;;;6.50;99.90;;;;;;4993157;28;20029;-78
2021/04/28 06:07:33;;;;;;;2.95;1.83;;;6.60;99.90;;;;;;4986872;28;20088;-82
2021/04/28 06:09:58;;;;;;;5.28;2.53;;;6.70;99.90;;;;;;4991338;28;20033;-79
2021/04/28 06:12:24;;;;;;;6.27;2.90;;;6.70;99.90;;;;;;5012599;28;20522;-84
2021/04/28 06:14:50;;;;;;;5.22;2.58;;;6.70;99.90;;;;;;5008492;28;20105;-81
2021/04/28 06:17:16;;;;;;;2.22;1.48;;;6.70;99.90;;;;;;4996024;28;20036;-84
2021/04/28 06:19:42;;;;;;;5.30;1.95;;;6.80;99.90;;;;;;5009758;28;20054;-78
2021/04/28 06:22:08;;;;;;;2.67;2.00;;;6.80;99.90;;;;;;4989683;28;20060;-85
2021/04/28 06:24:33;;;;;;;5.57;2.57;;;6.90;99.90;;;;;;4986422;28;20027;-88
2021/04/28 06:26:59;;;;;;;5.73;2.23;;;7.00;99.90;;;;;;5005338;28;20025;-82
2021/04/28 06:29:25;;;;;;;5.78;2.20;;;7.10;99.90;;;;;;5010129;28;20025;-84
2021/04/28 06:31:51;;;;;;;4.63;3.00;;;7.10;99.90;;;;;;4988122;28;20169;-88
2021/04/28 06:34:16;;;;;;;2.27;1.87;;;7.20;99.90;;;;;;4992749;28;20026;-81
2021/04/28 06:36:42;;;;;;;3.22;1.75;;;7.20;99.90;;;;;;5010219;28;20018;-85
2021/04/28 06:39:08;;;;;;;4.17;2.10;;;7.30;99.90;;;;;;5008208;28;20104;-85
2021/04/28 06:41:33;;;;;;;4.10;2.13;;;7.30;99.90;;;;;;5013788;28;20923;-80
2021/04/28 06:43:59;;;;;;;6.43;2.37;;;7.50;99.90;;;;;;5008860;28;20030;-84
2021/04/28 06:46:25;;;;;;;4.70;2.20;;;7.60;99.90;;;;;;5006144;28;20135;-83
2021/04/28 06:48:50;;;;;;;3.00;2.20;;;7.70;99.90;;;;;;4994367;28;20057;-85
2021/04/28 06:51:16;;;;;;;5.10;2.63;;;7.80;99.90;;;;;;4996060;28;20018;-86
2021/04/28 06:53:42;;;;;;;3.88;1.75;;;7.90;99.90;;;;;;5007207;28;20037;-88
2021/04/28 06:56:08;;;;;;;6.38;2.30;;;8.00;99.90;;;;;;4990301;28;20026;-89
2021/04/28 06:58:34;;;;;;;3.33;2.40;;;8.20;99.90;;;;;;5000364;28;20863;-85
2021/04/28 07:01:00;;;;;;;4.83;2.50;;;8.20;99.90;;;;;;4983515;28;20057;-86
2021/04/28 07:03:26;;;;;;;3.30;1.97;;;8.20;99.90;;;;;;5004513;28;20067;-77
2021/04/28 07:05:52;;;;;;;3.58;1.95;;;8.30;99.90;;;;;;5006882;28;20101;-83
2021/04/28 07:08:18;;;;;;;3.72;2.05;;;8.30;99.90;;;;;;4989918;28;20037;-85
2021/04/28 07:10:44;;;;;;;4.77;2.20;;;8.30;99.90;;;;;;4990711;28;20030;-83
2021/04/28 07:13:09;;;;;;;9.90;2.77;;;8.30;99.90;;;;;;5006862;28;20049;-84
2021/04/28 07:15:35;;;;;;;2.25;1.60;;;8.30;99.90;;;;;;5008582;28;20044;-78
2021/04/28 07:18:02;;;;;;;2.97;1.73;;;8.30;99.90;;;;;;5009658;28;20113;-83
2021/04/28 07:20:28;;;;;;;6.18;2.40;;;8.40;99.90;;;;;;4992591;28;20030;-74
2021/04/28 07:22:54;;;;;;;2.80;2.13;;;8.50;99.90;;;;;;4997779;28;20037;-87
2021/04/28 07:25:20;;;;;;;4.37;2.37;;;8.50;99.90;;;;;;4985839;28;20022;-85
2021/04/28 07:27:47;;;;;;;3.25;2.03;;;8.60;99.90;;;;;;4987775;28;20034;-78
2021/04/28 07:30:14;;;;;;;3.78;1.95;;;8.60;99.90;;;;;;5011096;28;20148;-86
2021/04/28 07:32:40;;;;;;;4.65;1.85;;;8.70;99.90;;;;;;5010804;28;20037;-84
2021/04/28 07:35:07;;;;;;;2.45;1.75;;;8.70;99.90;;;;;;5008888;28;20298;-82
2021/04/28 07:37:33;;;;;;;4.68;2.40;;;8.70;99.90;;;;;;5013480;28;20022;-84
2021/04/28 07:39:59;;;;;;;6.75;2.95;;;8.90;99.90;;;;;;5012041;28;20309;-80
2021/04/28 07:42:24;;;;;;;6.03;2.92;;;9.00;99.90;;;;;;5009918;28;20033;-85
2021/04/28 07:44:50;;;;;;;3.87;2.23;;;9.30;99.90;;;;;;5014937;28;20041;-83
2021/04/28 07:47:16;;;;;;;4.57;2.30;;;9.40;99.90;;;;;;5011296;28;20038;-74
2021/04/28 07:49:42;;;;;;;4.13;2.47;;;9.40;99.90;;;;;;5004351;28;20026;-82
2021/04/28 07:52:07;;;;;;;7.55;2.53;;;9.50;99.90;;;;;;5004479;28;20026;-79
2021/04/28 07:54:33;;;;;;;5.05;2.38;;;9.60;99.90;;;;;;5008638;28;20026;-85
2021/04/28 07:56:59;;;;;;;6.47;2.78;;;9.60;99.90;;;;;;5005168;28;20030;-82
2021/04/28 07:59:25;;;;;;;3.63;2.38;;;9.80;99.90;;;;;;4993546;28;20483;-81
2021/04/28 08:01:51;;;;;;;3.00;2.10;;;10.00;99.90;;;;;;4993679;28;20066;-76
2021/04/28 08:04:20;;;;;;;6.32;2.47;;;10.30;98.40;;;;;;5011132;28;20025;-74
2021/04/28 08:06:46;;;;;;;5.18;2.88;;;10.70;98.20;;;;;;4994050;28;20038;-85
2021/04/28 08:09:12;;;;;;;2.97;2.60;;;11.20;97.00;;;;;;5009283;28;20056;-83
2021/04/28 08:11:38;;;;;;;4.15;2.95;;;11.50;98.70;;;;;;5009218;28;20319;-85
2021/04/28 08:14:03;;;;;;;3.27;2.67;;;11.80;96.00;;;;;;5006839;28;20376;-85
2021/04/28 08:16:32;;;;;;;5.03;3.20;;;12.10;97.30;;;;;;5014692;28;20033;-82
2021/04/28 08:18:58;;;;;;;3.30;2.47;;;12.20;95.70;;;;;;5011025;28;20030;-85
2021/04/28 08:21:24;;;;;;;6.43;2.83;;;12.30;96.50;;;;;;5009819;28;20044;-82
2021/04/28 08:23:49;;;;;;;2.73;1.73;;;12.50;94.00;;;;;;5006274;28;20085;-86
2021/04/28 08:26:15;;;;;;;5.73;2.40;;;12.80;93.80;;;;;;4991007;28;20117;-82
2021/04/28 08:28:43;;;;;;;4.90;2.63;;;12.90;92.90;;;;;;5004990;28;20136;-87
2021/04/28 08:31:10;;;;;;;3.33;2.15;;;12.90;90.20;;;;;;5007104;28;20065;-81
2021/04/28 08:33:36;;;;;;;;;;;12.80;91.40;;;;;;5005721;28;20438;-75
2021/04/28 08:36:03;;;;;;;4.93;2.25;;;12.90;91.70;;;;;;4990935;28;19920;-85
2021/04/28 08:38:28;;;;;;;3.10;2.00;;;13.10;91.60;;;;;;5005733;28;20022;-86
2021/04/28 08:40:55;;;;;;;14.07;2.60;;;13.00;88.80;;;;;;5004224;28;20085;-87
2021/04/28 08:43:23;;;;;;;4.50;2.17;;;12.90;89.40;;;;;;5003687;28;20448;-80
2021/04/28 08:45:49;;;;;;;4.53;2.78;;;12.80;83.40;;;;;;5011909;28;20065;-84
2021/04/28 08:48:16;;;;;;;5.65;2.63;;;12.80;85.50;;;;;;4996522;28;20033;-82
2021/04/28 08:50:42;;;;;;;3.78;2.50;;;12.90;84.80;;;;;;5010028;28;20026;-84
2021/04/28 08:53:09;;;;;;;7.63;3.40;;;13.20;86.20;;;;;;5008939;28;20065;-82
2021/04/28 08:55:34;;;;;;;5.72;2.47;;;13.40;87.50;;;;;;5003812;28;20054;-83
2021/04/28 08:58:00;;;;;;;2.70;2.10;;;13.50;86.70;;;;;;4994908;28;20120;-79
2021/04/28 09:00:26;;;;;;;5.20;2.60;;;13.60;84.80;;;;;;5015288;28;20097;-78
2021/04/28 09:02:56;;;;;;;3.43;2.60;;;13.70;79.60;;;;;;4998067;28;20056;-77
2021/04/28 09:05:22;;;;;;;3.80;1.98;;;13.70;94.70;;;;;;5010066;28;20030;-82
2021/04/28 09:07:48;;;;;;;6.45;3.08;;;13.30;98.50;;;;;;5017096;28;20036;-80
2021/04/28 09:10:18;;;;;;;4.37;2.30;;;13.00;99.90;;;;;;5016794;28;20484;-81
2021/04/28 09:12:58;;;;;;;3.53;1.75;;;13.00;99.90;;;;;;5004854;28;20377;-77
2021/04/28 09:15:53;;;;;;;5.60;2.40;;;12.60;99.90;;;;;;5013459;28;20040;-74
2021/04/28 09:18:33;;;;;;;4.57;2.40;;;12.60;99.90;;;;;;5012262;28;20026;-75
2021/04/28 09:21:00;;;;;;;3.15;1.75;;;12.40;99.90;;;;;;5015990;28;20101;-75
2021/04/28 09:23:35;;;;;;;2.92;1.70;;;12.20;99.90;;;;;;5015095;28;20061;-75
2021/04/28 09:26:00;;;;;;;2.40;1.95;;;12.10;99.90;;;;;;5014185;28;20037;-74
2021/04/28 09:28:30;;;;;;;3.27;2.00;;;11.80;99.90;;;;;;4999652;28;20044;-77
2021/04/28 09:31:08;;;;;;;2.72;1.40;;;11.80;99.90;;;;;;5008195;28;20034;-78
2021/04/28 09:33:57;;;;;;;2.97;1.60;;;11.50;99.90;;;;;;5007528;28;20053;-74
2021/04/28 09:36:34;;;;;;;2.97;1.90;;;11.40;99.90;;;;;;5006892;28;20022;-76
2021/04/28 09:39:08;;;;;;;4.07;2.20;;;11.50;99.90;;;;;;5007517;28;20105;-77
2021/04/28 09:41:50;;;;;;;2.10;1.75;;;11.50;99.90;;;;;;5010980;28;20026;-75
2021/04/28 09:44:16;;;;;;;3.58;2.42;;;11.60;99.90;;;;;;5007374;28;20022;-74
2021/04/28 09:46:53;;;;;;;2.67;1.63;;;11.50;99.90;;;;;;4990275;28;20034;-75
2021/04/28 09:49:19;;;;;;;6.80;2.90;;;11.70;99.90;;;;;;4995076;28;20109;-75
2021/04/28 09:51:47;;;;;;;2.63;1.40;;;11.70;99.90;;;;;;5010541;28;20118;-75
2021/04/28 09:54:16;;;;;;;3.03;1.95;;;11.80;99.90;;;;;;4993011;28;20101;-75
2021/04/28 09:56:43;;;;;;;3.13;1.42;;;12.10;99.90;;;;;;5002154;28;20033;-74
2021/04/28 09:59:09;;;;;;;5.93;2.08;;;11.90;99.90;;;;;;5006179;28;20025;-75
2021/04/28 10:01:37;;;;;;;4.45;2.25;;;12.10;99.90;;;;;;4981668;28;20079;-75
2021/04/28 10:04:06;;;;;;;5.28;2.72;;;12.10;99.90;;;;;;4985942;28;20114;-75
2021/04/28 10:06:42;;;;;;;2.28;2.03;;;12.30;99.90;;;;;;4995156;28;20025;-75
2021/04/28 10:09:37;;;;;;;3.08;1.77;;;12.50;99.90;;;;;;4991657;28;20134;-76
2021/04/28 10:12:08;;;;;;;2.47;2.10;;;12.50;99.90;;;;;;5003647;28;20309;-75
2021/04/28 10:14:37;;;;;;;3.50;2.28;;;12.60;99.90;;;;;;5009205;28;20037;-75
2021/04/28 10:17:04;;;;;;;3.08;1.55;;;12.60;99.90;;;;;;4989025;28;20141;-74
2021/04/28 10:19:31;;;;;;;3.17;1.95;;;12.30;99.70;;;;;;5007149;28;20049;-75
2021/04/28 10:22:19;;;;;;;3.80;2.30;;;12.40;99.90;;;;;;5007795;28;20030;-79
2021/04/28 10:24:49;;;;;;;3.75;1.63;;;12.60;99.90;;;;;;4988283;28;20108;-75
2021/04/28 10:27:17;;;;;;;3.20;1.88;;;12.50;99.90;;;;;;5006678;28;20294;-75
2021/04/28 10:29:44;;;;;;;3.92;2.20;;;12.60;99.90;;;;;;4991111;28;20028;-77
2021/04/28 10:32:13;;;;;;;2.10;1.90;;;12.50;99.90;;;;;;4989172;28;20101;-76
2021/04/28 10:34:57;;;;;;;3.80;2.17;;;12.40;99.90;;;;;;5006938;28;20049;-75
2021/04/28 10:37:27;;;;;;;1.83;1.67;;;12.20;99.90;;;;;;4989528;28;20041;-74
2021/04/28 10:39:53;;;;;;;4.60;2.22;;;12.20;99.90;;;;;;5004207;28;20043;-76
2021/04/28 10:42:36;;;;;;;5.60;2.73;;;12.40;99.90;;;;;;5003526;28;20351;-76
2021/04/28 10:45:37;;;;;;;2.30;1.65;;;12.50;99.90;;;;;;5008722;28;20034;-76
2021/04/28 10:48:07;;;;;;;6.20;2.53;;;12.50;99.90;;;;;;4983130;28;20049;-77
2021/04/28 10:50:45;;;;;;;1.88;1.42;;;12.80;99.90;;;;;;5009440;28;20037;-75
2021/04/28 10:53:27;;;;;;;4.53;2.33;;;13.00;99.90;;;;;;5004447;28;20037;-78
2021/04/28 10:56:15;;;;;;;5.63;2.50;;;12.90;99.90;;;;;;5010037;28;20022;-74
2021/04/28 10:58:43;;;;;;;3.45;2.25;;;13.10;99.90;;;;;;5007547;28;20040;-74
2021/04/28 11:01:17;;;;;;;2.67;1.92;;;13.30;99.90;;;;;;5009138;28;20561;-75
2021/04/28 11:03:53;;;;;;;9.80;2.78;;;13.00;99.90;;;;;;5011607;28;20084;-78
2021/04/28 11:09:07;;;;;;;3.80;2.25;;;13.10;99.90;;;;;;5009256;28;19941;-78
2021/04/28 11:11:33;;;;;;;4.85;2.67;;;13.20;99.90;;;;;;4991333;28;20324;-75
2021/04/28 11:14:11;;;;;;;3.90;1.77;;;13.30;99.90;;;;;;5004630;28;20136;-78
2021/04/28 11:16:44;;;;;;;2.25;1.75;;;13.40;99.90;;;;;;4993536;28;20033;-74
2021/04/28 11:19:26;;;;;;;2.90;1.95;;;13.30;99.90;;;;;;5006553;28;20112;-79
2021/04/28 11:22:10;;;;;;;2.35;1.70;;;13.40;99.90;;;;;;5004136;28;20026;-76
2021/04/28 11:25:06;;;;;;;4.15;3.00;;;13.70;99.90;;;;;;5003113;28;20113;-73
2021/04/28 11:27:45;;;;;;;2.75;1.98;;;13.90;99.90;;;;;;4962689;28;20030;-76
2021/04/28 11:30:23;;;;;;;3.63;1.52;;;13.70;99.90;;;;;;4988729;28;20073;-75
2021/04/28 11:33:10;;;;;;;6.50;3.50;;;13.70;99.90;;;;;;4988418;28;20026;-82
2021/04/28 11:35:40;;;;;;;3.92;2.75;;;13.70;99.90;;;;;;4987017;28;20425;-76
2021/04/28 11:38:12;;;;;;;4.40;2.13;;;13.90;99.90;;;;;;4989394;28;20038;-75
2021/04/28 11:41:01;;;;;;;3.03;1.55;;;14.00;99.90;;;;;;4989115;28;20099;-76
2021/04/28 11:43:29;;;;;;;4.80;1.83;;;13.80;99.90;;;;;;4987378;28;20093;-75
2021/04/28 11:46:02;;;;;;;8.27;3.88;;;13.90;99.90;;;;;;5006991;28;20113;-81
2021/04/28 11:48:28;;;;;;;7.22;3.85;;;14.00;99.90;;;;;;4994614;28;20029;-77
2021/04/28 11:50:56;;;;;;;3.20;2.10;;;14.00;99.90;;;;;;5007499;28;20079;-78
2021/04/28 11:53:24;;;;;;;6.38;2.38;;;14.10;99.90;;;;;;4984364;28;20109;-72
2021/04/28 11:55:50;;;;;;;6.50;2.97;;;14.10;99.90;;;;;;4991621;28;20093;-75
2021/04/28 11:58:33;;;;;;;4.07;2.60;;;14.00;99.90;;;;;;5003869;28;20072;-75
2021/04/28 12:01:07;;;;;;;4.00;2.03;;;14.10;99.90;;;;;;4993829;28;20026;-75
2021/04/28 12:03:52;;;;;;;5.13;3.28;;;14.20;99.90;;;;;;4987880;28;20034;-76
2021/04/28 12:06:30;;;;;;;4.38;2.35;;;14.10;99.90;;;;;;4993029;28;20030;-75
2021/04/28 12:09:02;;;;;;;3.67;2.20;;;13.90;99.90;;;;;;4993918;28;20497;-74
2021/04/28 12:11:27;;;;;;;1.77;1.17;;;13.80;99.90;;;;;;5005382;28;20018;-79
2021/04/28 12:13:54;;;;;;;9.37;3.40;;;13.80;99.90;;;;;;4991950;28;20587;-74
2021/04/28 12:16:20;;;;;;;8.18;2.53;;;14.00;99.90;;;;;;4989755;28;20031;-75
2021/04/28 12:18:47;;;;;;;4.33;2.97;;;14.20;99.90;;;;;;5006286;28;20029;-74
2021/04/28 12:21:13;;;;;;;5.15;3.20;;;14.30;99.90;;;;;;5010548;28;20329;-75
2021/04/28 12:23:39;;;;;;;6.80;2.97;;;14.40;99.90;;;;;;5008941;28;20036;-75
2021/04/28 12:26:08;;;;;;;8.32;3.20;;;14.50;99.90;;;;;;4996184;28;20026;-75
2021/04/28 12:28:51;;;;;;;2.13;1.55;;;14.50;99.90;;;;;;5008081;28;20037;-81
2021/04/28 12:31:17;;;;;;;5.97;2.78;;;14.50;99.70;;;;;;4988466;28;20037;-74
2021/04/28 12:33:43;;;;;;;5.65;2.80;;;14.30;99.90;;;;;;4996715;28;20088;-75
2021/04/28 12:36:09;;;;;;;5.53;2.47;;;14.30;99.90;;;;;;4997479;28;20066;-76
2021/04/28 12:38:40;;;;;;;;;;;14.20;99.90;;;;;;4999895;28;20123;-80
2021/04/28 12:41:07;;;;;;;4.72;3.25;;;14.20;99.10;;;;;;4997029;28;20008;-76
2021/04/28 12:43:39;;;;;;;;;;;14.20;99.90;;;;;;4994443;28;20022;-76
2021/04/28 12:46:10;;;;;;;4.43;2.78;;;14.30;99.90;;;;;;5009564;28;19905;-76
2021/04/28 12:48:58;;;;;;;4.97;2.22;;;14.30;99.90;;;;;;5016517;28;20396;-76
2021/04/28 12:51:24;;;;;;;6.00;3.17;;;14.30;99.90;;;;;;5006489;28;20037;-75
2021/04/28 12:53:50;;;;;;;8.40;3.07;;;14.20;99.90;;;;;;5007780;28;20097;-78
2021/04/28 12:56:17;;;;;;;4.82;2.88;;;14.20;99.90;;;;;;4999898;28;20267;-75
2021/04/28 12:58:50;;;;;;;6.88;2.78;;;14.00;99.90;;;;;;5017451;28;20113;-76
2021/04/28 13:01:23;;;;;;;4.25;3.08;;;13.90;99.90;;;;;;5016626;28;20040;-74
2021/04/28 13:03:49;;;;;;;8.80;3.15;;;13.90;99.90;;;;;;4999932;28;20021;-79
2021/04/28 13:06:25;;;;;;;9.15;1.98;;;13.90;99.90;;;;;;5008553;28;20087;-76